Data for 11/27/2005

Time Sea-Level Adjusted Pressure Absolute Pressure Temperature Relative Humidity Dew Point   
(mb) (inHg) (mb) (inHg) (C) (F) (%) (C) (F)
00:05 1013 29.91 842 24.86 -5.2 22.7 86 -7.2 19
00:10 1013 29.91 842 24.86 -5.2 22.7 85 -7.3 18.9
00:15 1013 29.91 842 24.86 -5.1 22.7 86 -7.1 19.2
00:20 1013 29.91 842 24.86 -5.1 22.9 85 -7.2 19
00:25 1013 29.91 842 24.86 -5 22.9 85 -7.2 19
00:30 1013 29.91 842 24.86 -5 23 85 -7.2 19
00:35 1013 29.91 842 24.86 -5 23 85 -7.2 19.1
00:40 1013 29.91 842 24.86 -5.1 22.9 85 -7.2 19.1
00:45 1013 29.91 842 24.86 -5.2 22.7 88 -6.9 19.6
00:50 1013 29.91 842 24.86 -5.2 22.6 89 -6.8 19.8
00:55 1013 29.91 842 24.86 -5.3 22.5 89 -6.9 19.6
01:00 1013 29.91 842 24.86 -5.3 22.5 89 -6.7 19.9
01:05 1013 29.91 842 24.86 -5.3 22.5 89 -6.8 19.7
01:10 1013 29.91 842 24.86 -5.3 22.5 88 -7 19.4
01:15 1013 29.91 842 24.86 -5.2 22.7 87 -7 19.4
01:20 1013 29.91 842 24.86 -5.2 22.7 89 -6.8 19.8
01:25 1013 29.91 842 24.86 -5.2 22.7 90 -6.6 20.1
01:30 1013 29.91 842 24.86 -5.2 22.6 91 -6.5 20.3
01:35 1013 29.91 842 24.86 -5.3 22.5 91 -6.5 20.3
01:40 1013 29.91 842 24.86 -5.3 22.4 92 -6.4 20.4
01:45 1013 29.91 842 24.86 -5.3 22.4 93 -6.4 20.6
01:50 1013 29.91 842 24.86 -5.4 22.2 93 -6.4 20.5
01:55 1013 29.91 842 24.86 -5.5 22.1 93 -6.4 20.4
02:00 1013 29.91 842 24.86 -5.5 22.1 93 -6.4 20.4
02:05 1013 29.91 842 24.86 -5.5 22.1 94 -6.4 20.5
02:10 1013 29.91 842 24.86 -5.5 22.2 94 -6.3 20.6
02:15 1013 29.91 843 24.89 -5.4 22.3 94 -6.2 20.8
02:20 1013 29.91 843 24.89 -5.4 22.2 94 -6.3 20.7
02:25 1013 29.91 843 24.89 -5.4 22.3 94 -6.3 20.7
02:30 1013 29.91 843 24.89 -5.4 22.2 94 -6.3 20.7
02:35 1013 29.91 843 24.89 -5.5 22.2 93 -6.4 20.6
02:40 1013 29.91 843 24.89 -5.5 22.2 94 -6.3 20.6
02:45 1013 29.91 843 24.89 -5.4 22.2 94 -6.3 20.7
02:50 1013 29.91 843 24.89 -5.3 22.4 94 -6.2 20.9
02:55 1013 29.91 843 24.89 -5.3 22.4 94 -6.2 20.9
03:00 1014 29.94 843 24.89 -5.4 22.2 94 -6.3 20.7
03:05 1013 29.91 843 24.89 -5.3 22.4 94 -6.2 20.8
03:10 1013 29.91 843 24.89 -5.3 22.4 94 -6.1 21
03:15 1014 29.94 843 24.89 -5.3 22.5 94 -6.1 21
03:20 1013 29.91 843 24.89 -5.3 22.5 95 -6 21.2
03:25 1014 29.94 843 24.89 -5.2 22.6 95 -6 21.3
03:30 1014 29.94 843 24.89 -5.4 22.3 95 -6 21.1
03:35 1014 29.94 843 24.89 -5.4 22.3 95 -6 21.2
03:40 1014 29.94 843 24.89 -5.4 22.3 95 -6.1 21
03:45 1014 29.94 843 24.89 -5.4 22.3 95 -6.1 21
03:50 1014 29.94 843 24.89 -5.3 22.4 95 -6 21.2
03:55 1014 29.94 843 24.89 -5.3 22.5 94 -6.1 21.1
04:00 1014 29.94 843 24.89 -5.4 22.4 95 -6.1 21
04:05 1014 29.94 843 24.89 -5.3 22.4 94 -6.1 21
04:10 1014 29.94 843 24.89 -5.3 22.5 94 -6.1 21.1
04:15 1014 29.94 843 24.89 -5.3 22.5 95 -6 21.1
04:20 1014 29.94 843 24.89 -5.4 22.3 94 -6.2 20.9
04:25 1014 29.94 843 24.89 -5.4 22.3 94 -6.1 20.9
04:30 1014 29.94 843 24.89 -5.3 22.4 95 -6.1 21.1
04:35 1014 29.94 843 24.89 -5.4 22.4 95 -6.1 21
04:40 1014 29.94 843 24.89 -5.3 22.4 94 -6.1 21
04:45 1014 29.94 843 24.89 -5.4 22.2 95 -6.1 21
04:50 1014 29.94 843 24.89 -5.4 22.2 95 -6.2 20.9
04:55 1014 29.94 843 24.89 -5.6 22 95 -6.2 20.8
05:00 1014 29.94 843 24.89 -5.5 22.1 96 -6.1 21.1
05:05 1014 29.94 843 24.89 -5.5 22.2 96 -6 21.1
05:10 1014 29.94 843 24.89 -5.4 22.3 96 -6 21.3
05:15 1014 29.94 843 24.89 -5.4 22.3 96 -5.9 21.3
05:20 1014 29.94 843 24.89 -5.3 22.5 96 -5.8 21.5
05:25 1014 29.94 843 24.89 -5.3 22.4 96 -5.9 21.4
05:30 1014 29.94 844 24.92 -5.3 22.4 96 -5.9 21.4
05:35 1014 29.94 844 24.92 -5.3 22.4 96 -5.9 21.5
05:40 1014 29.94 844 24.92 -5.4 22.3 96 -5.9 21.3
05:45 1015 29.97 844 24.92 -5.3 22.4 96 -5.9 21.4
05:50 1015 29.97 844 24.92 -5.3 22.4 96 -5.9 21.4
05:55 1015 29.97 844 24.92 -5.4 22.3 96 -6 21.3
06:00 1015 29.97 844 24.92 -5.4 22.2 96 -6 21.2
06:05 1015 29.97 844 24.92 -5.4 22.2 96 -6 21.3
06:10 1015 29.97 844 24.92 -5.4 22.3 96 -6 21.3
06:15 1015 29.97 844 24.92 -5.4 22.3 96 -6 21.2
06:20 1015 29.97 844 24.92 -5.4 22.3 96 -6 21.2
06:25 1015 29.97 844 24.92 -5.3 22.4 95 -6 21.2
06:30 1015 29.97 844 24.92 -5.4 22.2 95 -6.1 21
06:35 1015 29.97 844 24.92 -5.5 22.2 95 -6.2 20.9
06:40 1015 29.97 844 24.92 -5.4 22.2 95 -6.1 21
06:45 1015 29.97 844 24.92 -5.4 22.2 95 -6.2 20.9
06:50 1015 29.97 844 24.92 -5.5 22.2 94 -6.2 20.8
06:55 1015 29.97 844 24.92 -5.4 22.2 95 -6.1 21
07:00 1015 29.97 844 24.92 -5.4 22.2 95 -6.2 20.9
07:05 1015 29.97 844 24.92 -5.5 22.2 95 -6.2 20.8
07:10 1015 29.97 844 24.92 -5.5 22.2 94 -6.3 20.6
07:15 1015 29.97 844 24.92 -5.4 22.2 94 -6.3 20.7
07:20 1015 29.97 844 24.92 -5.5 22.2 93 -6.4 20.5
07:25 1015 29.97 844 24.92 -5.4 22.3 93 -6.3 20.6
07:30 1015 29.97 845 24.95 -5.4 22.3 93 -6.4 20.5
07:35 1015 29.97 845 24.95 -5.4 22.3 93 -6.3 20.6
07:40 1015 29.97 845 24.95 -5.3 22.4 93 -6.4 20.6
07:45 1015 29.97 845 24.95 -5.3 22.4 93 -6.3 20.7
07:50 1016 30 845 24.95 -5.4 22.4 92 -6.4 20.4
07:55 1016 30 845 24.95 -5.3 22.4 92 -6.4 20.5
08:00 1016 30 845 24.95 -5.4 22.3 91 -6.6 20.2
08:05 1016 30 845 24.95 -5.4 22.3 91 -6.6 20.1
08:10 1016 30 845 24.95 -5.3 22.4 92 -6.5 20.4
08:15 1016 30 845 24.95 -5.3 22.5 91 -6.5 20.3
08:20 1016 30 845 24.95 -5.3 22.5 93 -6.3 20.6
08:25 1016 30 845 24.95 -5.3 22.5 92 -6.3 20.7
08:30 1016 30 845 24.95 -5.4 22.3 92 -6.4 20.5
08:35 1016 30 845 24.95 -5.3 22.5 92 -6.4 20.5
08:40 1016 30 845 24.95 -5.3 22.4 93 -6.4 20.6
08:45 1016 30 845 24.95 -5.4 22.2 94 -6.3 20.7
08:50 1016 30 845 24.95 -5.3 22.4 93 -6.3 20.7
08:55 1016 30 845 24.95 -5.3 22.5 93 -6.2 20.8
09:00 1016 30 845 24.95 -5.2 22.6 93 -6.2 20.8
09:05 1016 30 845 24.95 -5.1 22.8 93 -6 21.1
09:10 1016 30 845 24.95 -5.1 22.9 92 -6.2 20.8
09:15 1016 30 845 24.95 -5 23 90 -6.3 20.6
09:20 1016 30 846 24.98 -5.2 22.7 91 -6.4 20.4
09:25 1016 30 846 24.98 -5.2 22.7 91 -6.4 20.5
09:30 1017 30.03 846 24.98 -5 23 90 -6.4 20.6
09:35 1017 30.03 846 24.98 -4.9 23.2 88 -6.6 20.1
09:40 1017 30.03 846 24.98 -4.9 23.1 88 -6.6 20
09:45 1017 30.03 846 24.98 -4.9 23.1 88 -6.7 20
09:50 1017 30.03 846 24.98 -4.9 23.2 87 -6.7 19.9
09:55 1017 30.03 846 24.98 -4.8 23.4 87 -6.6 20.1
10:00 1017 30.03 846 24.98 -4.6 23.7 86 -6.6 20.1
10:05 1017 30.03 846 24.98 -4.5 23.9 87 -6.4 20.4
10:10 1017 30.03 846 24.98 -4.4 24.1 87 -6.3 20.7
10:15 1017 30.03 846 24.98 -4.3 24.3 86 -6.3 20.6
10:20 1017 30.03 846 24.98 -4.2 24.4 86 -6.3 20.7
10:25 1017 30.03 846 24.98 -4.2 24.5 86 -6.2 20.8
10:30 1017 30.03 846 24.98 -4.2 24.5 85 -6.2 20.8
10:35 1017 30.03 846 24.98 -4.1 24.7 84 -6.4 20.6
10:40 1017 30.03 846 24.98 -3.9 24.9 85 -6.2 20.9
10:45 1017 30.03 846 24.98 -3.7 25.3 83 -6.1 20.9
10:50 1017 30.03 846 24.98 -3.6 25.6 82 -6.2 20.9
10:55 1017 30.03 846 24.98 -3.5 25.7 81 -6.3 20.7
11:00 1017 30.03 846 24.98 -3.6 25.5 80 -6.6 20.1
11:05 1017 30.03 846 24.98 -3.6 25.5 81 -6.5 20.4
11:10 1017 30.03 846 24.98 -3.5 25.6 80 -6.6 20.2
11:15 1017 30.03 846 24.98 -3.6 25.6 80 -6.6 20.1
11:20 1017 30.03 846 24.98 -3.6 25.6 78 -6.8 19.7
11:25 1017 30.03 846 24.98 -3.6 25.5 80 -6.6 20.2
11:30 1017 30.03 846 24.98 -3.7 25.3 80 -6.7 20
11:35 1017 30.03 846 24.98 -3.8 25.1 81 -6.7 20
11:40 1017 30.03 846 24.98 -3.9 25 81 -6.7 20
11:45 1017 30.03 846 24.98 -3.9 25 82 -6.6 20.1
11:50 1017 30.03 846 24.98 -3.9 25 81 -6.8 19.8
11:55 1017 30.03 846 24.98 -3.7 25.4 79 -6.8 19.7
12:00 1017 30.03 846 24.98 -3.5 25.7 80 -6.5 20.3
12:05 1017 30.03 846 24.98 -3.4 25.8 79 -6.6 20.1
12:10 1017 30.03 846 24.98 -3.3 26 79 -6.5 20.3
12:15 1017 30.03 846 24.98 -3.2 26.3 78 -6.4 20.5
12:20 1017 30.03 846 24.98 -3.2 26.2 78 -6.4 20.4
12:25 1017 30.03 846 24.98 -3.3 26 79 -6.4 20.5
12:30 1017 30.03 846 24.98 -3.4 25.9 80 -6.3 20.7
12:35 1017 30.03 846 24.98 -3.4 26 80 -6.3 20.6
12:40 1017 30.03 846 24.98 -3.3 26 82 -6 21.2
12:45 1017 30.03 846 24.98 -3.4 25.9 82 -6.1 21.1
12:50 1017 30.03 846 24.98 -3.3 26.1 81 -6.1 21
12:55 1017 30.03 847 25.01 -3.4 25.8 84 -5.7 21.8
13:00 1017 30.03 847 25.01 -3.4 25.9 85 -5.6 21.9
13:05 1017 30.03 847 25.01 -3.5 25.7 85 -5.6 21.9
13:10 1017 30.03 847 25.01 -3.4 25.9 84 -5.7 21.8
13:15 1017 30.03 847 25.01 -3.3 26.1 81 -6.1 21.1
13:20 1017 30.03 847 25.01 -3.6 25.5 81 -6.4 20.5
13:25 1017 30.03 847 25.01 -3.5 25.6 81 -6.3 20.6
13:30 1018 30.06 847 25.01 -3.4 25.9 80 -6.4 20.5
13:35 1018 30.06 847 25.01 -3.5 25.7 81 -6.4 20.5
13:40 1018 30.06 847 25.01 -3.4 25.9 82 -6 21.3
13:45 1018 30.06 847 25.01 -3.4 25.8 84 -5.8 21.6
13:50 1018 30.06 847 25.01 -3.6 25.5 85 -5.8 21.5
13:55 1018 30.06 847 25.01 -3.8 25.2 86 -5.8 21.6
14:00 1018 30.06 847 25.01 -3.9 25.1 88 -5.5 22.1
14:05 1018 30.06 847 25.01 -3.9 25.1 88 -5.6 21.9
14:10 1018 30.06 847 25.01 -4 24.9 88 -5.6 21.9
14:15 1018 30.06 847 25.01 -3.9 25.1 89 -5.5 22.1
14:20 1018 30.06 847 25.01 -4.1 24.6 89 -5.7 21.7
14:25 1018 30.06 847 25.01 -4.3 24.3 89 -5.8 21.6
14:30 1018 30.06 847 25.01 -4.5 24 89 -6 21.3
14:35 1018 30.06 847 25.01 -4.4 24.1 89 -5.9 21.3
14:40 1018 30.06 847 25.01 -4.1 24.6 87 -5.9 21.3
14:45 1018 30.06 847 25.01 -4 24.7 87 -5.9 21.4
14:50 1018 30.06 847 25.01 -4.2 24.4 88 -5.9 21.4
14:55 1018 30.06 847 25.01 -4.1 24.7 87 -5.9 21.3
15:00 1018 30.06 847 25.01 -4 24.8 87 -5.9 21.3
15:05 1018 30.06 847 25.01 -4 24.7 87 -5.9 21.3
15:10 1018 30.06 847 25.01 -4.1 24.6 87 -6 21.2
15:15 1018 30.06 847 25.01 -4.1 24.6 87 -6 21.2
15:20 1018 30.06 847 25.01 -4.2 24.5 87 -6.1 21.1
15:25 1018 30.06 847 25.01 -4.2 24.4 87 -6 21.1
15:30 1018 30.06 847 25.01 -4 24.7 86 -6 21.2
15:35 1018 30.06 847 25.01 -4.1 24.6 87 -6 21.2
15:40 1018 30.06 847 25.01 -4 24.7 87 -5.9 21.4
15:45 1018 30.06 847 25.01 -3.9 25 85 -6 21.2
15:50 1018 30.06 848 25.04 -4 24.8 85 -6.1 21
15:55 1018 30.06 848 25.04 -4 24.9 85 -6.1 21
16:00 1018 30.06 848 25.04 -3.9 24.9 85 -6.1 21
16:05 1018 30.06 848 25.04 -4.1 24.7 85 -6.2 20.8
16:10 1018 30.06 848 25.04 -4 24.7 85 -6.3 20.7
16:15 1018 30.06 848 25.04 -4 24.7 86 -6.1 21.1
16:20 1018 30.06 848 25.04 -4 24.7 85 -6.2 20.9
16:25 1018 30.06 848 25.04 -4.2 24.4 86 -6.2 20.8
16:30 1019 30.09 848 25.04 -4.2 24.4 86 -6.3 20.7
16:35 1019 30.09 848 25.04 -4.3 24.3 86 -6.3 20.7
16:40 1019 30.09 848 25.04 -4.2 24.5 85 -6.3 20.6
16:45 1019 30.09 848 25.04 -4.2 24.4 85 -6.3 20.6
16:50 1019 30.09 848 25.04 -4.2 24.5 85 -6.3 20.7
16:55 1019 30.09 848 25.04 -4.1 24.7 84 -6.3 20.6
17:00 1019 30.09 848 25.04 -4.1 24.6 85 -6.3 20.7
17:05 1019 30.09 848 25.04 -4.1 24.6 84 -6.4 20.4
17:10 1019 30.09 848 25.04 -4.1 24.5 84 -6.4 20.5
17:15 1019 30.09 848 25.04 -4.2 24.5 85 -6.3 20.7
17:20 1019 30.09 848 25.04 -4.1 24.6 86 -6.1 20.9
17:25 1019 30.09 848 25.04 -4.1 24.6 85 -6.3 20.7
17:30 1019 30.09 848 25.04 -4.2 24.4 86 -6.2 20.9
17:35 1019 30.09 848 25.04 -4.2 24.4 86 -6.1 20.9
17:40 1019 30.09 848 25.04 -4.2 24.4 87 -6 21.1
17:45 1019 30.09 848 25.04 -4.3 24.2 87 -6.1 21
17:50 1019 30.09 848 25.04 -4.4 24.1 87 -6.2 20.8
17:55 1019 30.09 848 25.04 -4.4 24.1 87 -6.3 20.7
18:00 1019 30.09 848 25.04 -4.5 24 87 -6.2 20.8
18:05 1019 30.09 849 25.07 -4.5 23.9 87 -6.3 20.6
18:10 1019 30.09 849 25.07 -4.5 23.9 87 -6.3 20.6
18:15 1019 30.09 849 25.07 -4.5 23.8 88 -6.3 20.7
18:20 1019 30.09 849 25.07 -4.5 23.8 87 -6.4 20.4
18:25 1019 30.09 849 25.07 -4.6 23.7 87 -6.5 20.3
18:30 1019 30.09 848 25.04 -4.7 23.6 88 -6.4 20.5
18:35 1019 30.09 848 25.04 -4.6 23.7 86 -6.6 20.2
18:40 1019 30.09 849 25.07 -4.6 23.7 86 -6.6 20.2
18:45 1019 30.09 849 25.07 -4.6 23.7 87 -6.5 20.2
18:50 1019 30.09 849 25.07 -4.7 23.6 86 -6.6 20.1
18:55 1019 30.09 849 25.07 -4.6 23.7 87 -6.5 20.3
19:00 1019 30.09 849 25.07 -4.5 23.8 87 -6.4 20.5
19:05 1019 30.09 849 25.07 -4.6 23.8 88 -6.3 20.6
19:10 1019 30.09 849 25.07 -4.7 23.6 88 -6.3 20.6
19:15 1020 30.12 849 25.07 -4.7 23.6 89 -6.3 20.7
19:20 1020 30.12 849 25.07 -4.6 23.7 88 -6.3 20.6
19:25 1020 30.12 849 25.07 -4.6 23.7 88 -6.3 20.7
19:30 1020 30.12 849 25.07 -4.6 23.8 87 -6.4 20.5
19:35 1020 30.12 849 25.07 -4.6 23.8 87 -6.5 20.3
19:40 1020 30.12 849 25.07 -4.6 23.7 86 -6.6 20.2
19:45 1020 30.12 849 25.07 -4.7 23.5 86 -6.7 20
19:50 1020 30.12 849 25.07 -4.7 23.5 86 -6.8 19.8
19:55 1020 30.12 849 25.07 -4.8 23.4 86 -6.7 19.9
20:00 1020 30.12 849 25.07 -4.8 23.4 86 -6.8 19.8
20:05 1020 30.12 849 25.07 -4.8 23.4 87 -6.7 20
20:10 1020 30.12 849 25.07 -4.8 23.4 87 -6.6 20.1
20:15 1020 30.12 849 25.07 -4.8 23.3 88 -6.6 20.1
20:20 1020 30.12 849 25.07 -4.8 23.4 88 -6.5 20.2
20:25 1020 30.12 849 25.07 -4.8 23.3 87 -6.6 20
20:30 1020 30.12 849 25.07 -4.9 23.2 87 -6.7 19.9
20:35 1020 30.12 849 25.07 -4.8 23.3 87 -6.7 20
20:40 1020 30.12 849 25.07 -4.8 23.3 87 -6.7 19.9
20:45 1020 30.12 849 25.07 -4.7 23.5 86 -6.8 19.8
20:50 1020 30.12 849 25.07 -4.9 23.2 86 -6.9 19.6
20:55 1020 30.12 849 25.07 -4.9 23.2 86 -6.9 19.6
21:00 1020 30.12 849 25.07 -4.9 23.2 87 -6.8 19.8
21:05 1020 30.12 849 25.07 -4.9 23.1 87 -6.8 19.8
21:10 1020 30.12 849 25.07 -4.9 23.1 88 -6.6 20.2
21:15 1020 30.12 849 25.07 -5 23 89 -6.5 20.3
21:20 1020 30.12 849 25.07 -5 23 90 -6.4 20.5
21:25 1020 30.12 849 25.07 -5.1 22.8 91 -6.3 20.6
21:30 1020 30.12 849 25.07 -5.2 22.6 92 -6.3 20.6
21:35 1020 30.12 849 25.07 -5.3 22.5 93 -6.3 20.7
21:40 1020 30.12 849 25.07 -5.3 22.4 93 -6.2 20.8
21:45 1020 30.12 849 25.07 -5.4 22.4 94 -6.2 20.8
21:50 1020 30.12 849 25.07 -5.3 22.4 94 -6.2 20.9
21:55 1020 30.12 849 25.07 -5.2 22.6 94 -6 21.2
22:00 1020 30.12 849 25.07 -5.2 22.7 93 -6.2 20.9
22:05 1020 30.12 849 25.07 -5.2 22.6 94 -6.1 21
22:10 1020 30.12 849 25.07 -5.2 22.6 94 -6.1 21
22:15 1020 30.12 849 25.07 -5.3 22.5 94 -6.1 21.1
22:20 1020 30.12 849 25.07 -5.3 22.4 94 -6.1 21
22:25 1020 30.12 849 25.07 -5.3 22.5 95 -6 21.2
22:30 1020 30.12 850 25.1 -5.2 22.6 95 -5.9 21.3
22:35 1020 30.12 850 25.1 -5.3 22.4 95 -6 21.1
22:40 1020 30.12 850 25.1 -5.4 22.4 95 -6 21.1
22:45 1020 30.12 850 25.1 -5.3 22.4 95 -6 21.2
22:50 1021 30.15 850 25.1 -5.4 22.3 95 -6 21.1
22:55 1021 30.15 850 25.1 -5.3 22.4 95 -6 21.2
23:00 1021 30.15 850 25.1 -5.3 22.4 95 -6 21.2
23:05 1021 30.15 850 25.1 -5.3 22.5 95 -6 21.2
23:10 1021 30.15 850 25.1 -5.3 22.5 95 -5.9 21.4
23:15 1021 30.15 850 25.1 -5.2 22.6 95 -5.9 21.5
23:20 1021 30.15 850 25.1 -5.2 22.6 96 -5.8 21.5
23:25 1021 30.15 850 25.1 -5.2 22.7 95 -5.9 21.5
23:30 1021 30.15 850 25.1 -5.2 22.6 95 -5.9 21.3
23:35 1021 30.15 850 25.1 -5.3 22.5 95 -6 21.2
23:40 1021 30.15 850 25.1 -5.4 22.4 95 -6.1 21.1
23:45 1021 30.15 850 25.1 -5.4 22.2 95 -6.1 21
23:50 1021 30.15 850 25.1 -5.4 22.2 95 -6.1 21
23:55 1021 30.15 850 25.1 -5.5 22.1 95 -6.2 20.8
24:00 1021 30.15 850 25.1 -5.5 22.1 94 -6.3 20.7